Terminal Aerodrome Forecast
Issued by NWS Lake Charles, LA

Home | Current Version | Previous Version | Text Only | Print | Product List | Glossary On
Versions: 1 2 3 4 5 6 7 8 9 10 11 12 13 14 15 16 17
000
FTUS44 KLCH 242300
TAFLFT
TAF
KLFT 242328Z 2500/2524 VRB06KT P6SM VCTS SCT040CB SCT080
     FM250200 VRB03KT P6SM FEW030
     FM251700 24006KT P6SM VCTS SCT040CB=

USA.gov is the U.S. government's official web portal to all federal, state and local government web resources and services.